KLNSKHFD

Guest
Details From KLNS - Lancaster
To KHFD - HARTFORD BRAINARD
Flight Number -
Tags generated
Created
Modified
Stats Distance 192 nm / 355 km
Max Altitude 21,100 ft / 6,431 m
Waypoints 3
Social Downloads 0
Likes 0
Share VATSIM

Download

Looking for another format? Having issues loading an existing format? Contact us
Advertisement - Login to hide

Notes

Basic altitude profile: - Ascent Rate: 500ft/min - Ascent Speed: 76kts - Cruise Altitude: 4500ft - Cruise Speed: 120kts - Descent Rate: 500ft/min - Descent Speed: 85kts Options: - Use NATs: yes - Use PACOTS: yes - Use low airways: yes - Use high airways: yes

Route

KLNS HOPAT KHFD

ID Type Via Altitude Latitude Longitude Leg Dist Tot Dist Heading (true) Name
O KLNS APT - 0 ft / 0 m 40.12195˚ -76.29498˚ - 0 nm - Lancaster
HOPAT FIX - 21,100 ft / 6,431 m 40.88763˚ -74.64132˚ 88 nm 88 nm 58° / 59° -
O KHFD APT - 0 ft / 0 m 41.73566˚ -72.65098˚ 103 nm 191 nm 60° / 61° HARTFORD BRAINARD

Altitude Profile

Advertisement - Login to hide

Weather


0- 5 10 15 20 25 30 35+ Temperature / ° C

Clouds and Precipitation
Forecast for 2017-12-13 06:00 UTC. Updated 43 minutes ago

Ground ~20,000 ft ~40,000 ft Winds

KLNS

Details ICAO KLNS (LNS)
Name Lancaster
Region United States
Timezone America/New_York (UTC-5.0)
Stats Elevation 403 ft / 123 m (AMSL)
Location 40.121953° -76.294980°
Runways 2
Magnetic Variation 11.529° W

METAR

KLNS 130353Z 30019G28KT 10SM M06/M15 A2962 RMK AO2 PK WND 30036/0318 SLP035 T10611150 $

Decode

TAF

KLNS 122335Z 1300/1324 30015G25KT P6SM -SHSN BKN070 FM131500 29019G25KT P6SM SCT250

Decode

Departure Runways

ID Width Length Bearing (true) Bearing (mag) Surface Threshold Offset Overrun Length
08 150 ft / 46 m 6,922 ft / 2,110 m 67.89° 79.42° Asphalt 200 ft / 61 m 0 ft / 0 m
13 100 ft / 30 m 4,096 ft / 1,248 m 119.30° 130.83° Asphalt 0 ft / 0 m 0 ft / 0 m
26 150 ft / 46 m 6,922 ft / 2,110 m 247.91° 259.44° Asphalt 459 ft / 140 m 0 ft / 0 m
31 100 ft / 30 m 4,096 ft / 1,248 m 299.31° 310.84° Asphalt 0 ft / 0 m 0 ft / 0 m

KHFD

Details ICAO KHFD (HFD)
Name HARTFORD BRAINARD
Region United States
Timezone America/New_York (UTC-5.0)
Stats Elevation 18 ft / 5 m (AMSL)
Location 41.735663° -72.650978°
Runways 2
Magnetic Variation 13.801° W

METAR

KHFD 130353Z 35010G19KT 10SM FEW060 BKN110 M01/M07 A2935 RMK AO2 PRESFR SLP940 T10061072

Decode

TAF

Not found

Destination Runways

ID Width Length Bearing (true) Bearing (mag) Surface Threshold Offset Overrun Length
02 150 ft / 46 m 4,423 ft / 1,348 m 8.91° 22.71° Asphalt 410 ft / 125 m 0 ft / 0 m
11 71 ft / 22 m 2,314 ft / 705 m 98.96° 112.76° Asphalt 0 ft / 0 m 0 ft / 0 m
20 150 ft / 46 m 4,423 ft / 1,348 m 188.91° 202.71° Asphalt 561 ft / 171 m 0 ft / 0 m
29 71 ft / 22 m 2,314 ft / 705 m 278.96° 292.76° Asphalt 266 ft / 81 m 0 ft / 0 m

Approach Navaids

Runway Type Ident Frequency Range Bearing (true) Bearing (mag) Slope Elevation
02 Localiser IHFD 109.70 MHz 18 nm / 33 km 347.69° 1.49° - 11 ft / 3 m (AMSL)